createdAt,value
2023-07-29T00:01:10.425Z,19.43
2023-07-29T00:06:13.328Z,20.60
2023-07-29T00:11:16.234Z,19.10
2023-07-29T00:16:19.164Z,23.13
2023-07-29T00:21:22.120Z,19.70
2023-07-29T00:26:27.109Z,21.20
2023-07-29T00:31:30.058Z,23.93
2023-07-29T00:36:32.955Z,21.77
2023-07-29T00:41:35.773Z,22.50
2023-07-29T00:46:40.290Z,22.70
2023-07-29T00:51:43.222Z,24.40
2023-07-29T00:56:46.206Z,23.07
2023-07-29T01:01:49.313Z,27.70
2023-07-29T01:07:16.768Z,112.87
2023-07-29T01:12:39.650Z,85.63
2023-07-29T01:17:48.018Z,43.37
2023-07-29T01:22:51.067Z,45.40
2023-07-29T01:27:54.431Z,47.43
2023-07-29T01:33:11.763Z,43.90
2023-07-29T01:38:20.002Z,39.60
2023-07-29T01:43:24.747Z,37.53
2023-07-29T01:48:28.672Z,34.47
2023-07-29T01:53:31.472Z,42.17
2023-07-29T01:58:34.281Z,37.03
2023-07-29T02:03:37.082Z,33.80
2023-07-29T02:08:42.024Z,29.67
2023-07-29T02:13:45.029Z,24.67
2023-07-29T02:18:47.832Z,26.53
2023-07-29T02:23:50.661Z,24.17
2023-07-29T02:28:53.657Z,25.00
2023-07-29T02:33:57.018Z,21.93
2023-07-29T02:38:59.942Z,28.83
2023-07-29T02:44:04.483Z,24.87
2023-07-29T02:49:07.285Z,23.47
2023-07-29T02:54:10.110Z,23.23
2023-07-29T02:59:12.955Z,21.73
2023-07-29T03:04:15.770Z,22.57
2023-07-29T03:09:18.590Z,21.63
2023-07-29T03:14:22.008Z,23.00
2023-07-29T03:19:24.815Z,20.13
2023-07-29T03:24:27.596Z,16.50
2023-07-29T03:29:30.387Z,20.30
2023-07-29T03:34:33.231Z,21.37
2023-07-29T03:39:35.911Z,20.73
2023-07-29T03:44:40.590Z,18.23
2023-07-29T03:49:43.498Z,20.67
2023-07-29T03:54:46.300Z,17.87
2023-07-29T03:59:49.116Z,21.87
2023-07-29T04:04:52.136Z,19.30
2023-07-29T04:09:55.075Z,19.33
2023-07-29T04:14:57.874Z,21.50
2023-07-29T04:20:00.693Z,20.57
2023-07-29T04:25:05.746Z,23.20
2023-07-29T04:30:09.199Z,18.60
2023-07-29T04:35:12.082Z,19.30
2023-07-29T04:40:14.967Z,16.90
2023-07-29T04:45:17.824Z,18.80
2023-07-29T04:50:20.998Z,21.00
2023-07-29T04:55:23.859Z,15.57
2023-07-29T05:00:26.676Z,18.27
2023-07-29T05:05:29.485Z,18.20
2023-07-29T05:10:32.302Z,14.48
2023-07-29T05:15:35.173Z,15.18
2023-07-29T05:20:38.048Z,15.90
2023-07-29T05:25:41.000Z,13.93
2023-07-29T05:30:45.504Z,12.80
2023-07-29T05:35:48.671Z,12.30
2023-07-29T05:40:51.863Z,13.27
2023-07-29T05:45:54.941Z,11.60
2023-07-29T05:50:57.775Z,10.38
2023-07-29T05:56:00.565Z,10.18
2023-07-29T06:01:03.394Z,11.60
2023-07-29T06:06:06.281Z,8.97
2023-07-29T06:11:09.113Z,12.23
2023-07-29T06:16:11.966Z,8.70
2023-07-29T06:21:18.282Z,11.63
2023-07-29T06:26:21.306Z,8.27
2023-07-29T06:31:24.315Z,8.57
2023-07-29T06:36:27.253Z,10.15
2023-07-29T06:41:30.054Z,8.73
2023-07-29T06:46:32.999Z,8.13
2023-07-29T06:51:36.812Z,12.00
2023-07-29T06:56:39.768Z,8.70
2023-07-29T07:01:42.667Z,6.97
2023-07-29T07:06:45.554Z,8.77
2023-07-29T07:11:48.827Z,10.30
2023-07-29T07:16:51.691Z,9.73
2023-07-29T07:21:54.573Z,7.13
2023-07-29T07:26:57.452Z,9.90
2023-07-29T07:32:00.818Z,7.25
2023-07-29T07:37:05.382Z,7.38
2023-07-29T07:42:08.276Z,9.75
2023-07-29T07:47:11.130Z,7.22
2023-07-29T07:52:13.927Z,13.95
2023-07-29T07:57:16.722Z,12.88
2023-07-29T08:02:19.778Z,8.70
2023-07-29T08:07:22.621Z,6.25
2023-07-29T08:12:25.416Z,4.97
2023-07-29T08:17:28.255Z,4.97
2023-07-29T08:22:31.098Z,4.30
2023-07-29T08:27:35.747Z,4.45
2023-07-29T08:32:38.810Z,4.32
2023-07-29T08:37:41.641Z,7.85
2023-07-29T08:42:47.106Z,4.35
2023-07-29T08:47:51.557Z,5.03
2023-07-29T08:52:54.609Z,5.22
2023-07-29T08:57:58.329Z,4.55
2023-07-29T09:03:07.369Z,4.40
2023-07-29T09:08:10.521Z,3.70
2023-07-29T09:13:13.316Z,5.07
2023-07-29T09:18:21.077Z,4.30
2023-07-29T09:23:24.031Z,5.25
2023-07-29T09:28:28.706Z,3.60
2023-07-29T09:33:38.775Z,4.20
2023-07-29T09:38:41.633Z,4.35
2023-07-29T09:43:44.470Z,4.30
2023-07-29T09:48:48.279Z,4.63
2023-07-29T09:53:53.151Z,4.18
2023-07-29T09:59:02.331Z,4.07
2023-07-29T10:04:09.483Z,4.35
2023-07-29T10:09:14.364Z,3.45
2023-07-29T10:14:20.057Z,2.85
2023-07-29T10:19:24.161Z,2.90
2023-07-29T10:24:33.547Z,3.08
2023-07-29T10:29:40.231Z,5.75
2023-07-29T10:34:44.094Z,3.70
2023-07-29T10:40:08.279Z,4.20
2023-07-29T10:45:23.703Z,3.58
2023-07-29T10:50:29.117Z,4.88
2023-07-29T10:55:39.364Z,3.15
2023-07-29T11:00:46.326Z,3.80
2023-07-29T11:05:51.308Z,4.07
2023-07-29T11:11:06.007Z,4.45
2023-07-29T11:16:10.930Z,5.18
2023-07-29T11:21:15.987Z,3.05
2023-07-29T11:26:18.790Z,3.38
2023-07-29T11:31:21.987Z,3.28
2023-07-29T11:36:25.511Z,3.05
2023-07-29T11:41:28.352Z,2.92
2023-07-29T11:46:31.188Z,2.42
2023-07-29T11:51:34.131Z,2.45
2023-07-29T11:56:37.558Z,2.90
2023-07-29T12:01:40.610Z,2.75
2023-07-29T12:06:43.776Z,5.15
2023-07-29T12:11:46.650Z,3.95
2023-07-29T12:16:50.606Z,3.58
2023-07-29T12:21:53.497Z,3.67
2023-07-29T12:26:56.298Z,3.50
2023-07-29T12:32:01.366Z,2.40
2023-07-29T12:37:06.100Z,2.85
2023-07-29T12:42:09.010Z,2.83
2023-07-29T12:47:12.925Z,2.60
2023-07-29T12:52:15.740Z,3.72
2023-07-29T12:57:18.522Z,3.28
2023-07-29T13:02:21.383Z,2.58
2023-07-29T13:07:24.252Z,2.30
2023-07-29T13:12:27.181Z,2.30
2023-07-29T13:17:30.018Z,2.30
2023-07-29T13:22:32.846Z,4.40
2023-07-29T13:27:35.698Z,2.70
2023-07-29T13:32:38.545Z,2.70
2023-07-29T13:37:41.373Z,2.42
2023-07-29T13:42:44.251Z,2.00
2023-07-29T13:47:47.115Z,3.38
2023-07-29T13:52:50.084Z,2.60
2023-07-29T13:57:55.073Z,3.25
2023-07-29T14:02:57.847Z,2.55
2023-07-29T14:08:00.769Z,2.35
2023-07-29T14:13:03.573Z,2.35
2023-07-29T14:18:07.589Z,2.53
2023-07-29T14:23:10.546Z,2.53
2023-07-29T14:28:15.283Z,1.77
2023-07-29T14:33:18.270Z,2.20
2023-07-29T14:38:21.142Z,1.77
2023-07-29T14:43:24.633Z,1.83
2023-07-29T14:48:27.884Z,1.80
2023-07-29T14:53:30.750Z,2.35
2023-07-29T14:58:33.544Z,2.28
2023-07-29T15:03:36.372Z,2.92
2023-07-29T15:08:39.206Z,2.00
2023-07-29T15:13:42.011Z,1.50
2023-07-29T15:18:44.881Z,2.53
2023-07-29T15:23:47.697Z,2.00
2023-07-29T15:28:50.568Z,2.30
2023-07-29T15:33:53.394Z,3.45
2023-07-29T15:38:56.265Z,2.70
2023-07-29T15:43:59.255Z,1.75
2023-07-29T15:49:02.092Z,3.40
2023-07-29T15:54:04.972Z,2.25
2023-07-29T15:59:07.852Z,2.80
2023-07-29T16:04:10.701Z,2.70
2023-07-29T16:09:13.527Z,3.58
2023-07-29T16:14:16.405Z,4.68
2023-07-29T16:19:25.814Z,2.08
2023-07-29T16:24:28.700Z,5.20
2023-07-29T16:29:31.496Z,2.53
2023-07-29T16:34:34.309Z,3.38
2023-07-29T16:39:37.432Z,3.47
2023-07-29T16:44:41.807Z,2.38
2023-07-29T16:49:44.684Z,3.03
2023-07-29T16:54:47.669Z,3.17
2023-07-29T16:59:50.478Z,4.53
2023-07-29T17:04:53.312Z,2.50
2023-07-29T17:09:56.125Z,3.05
2023-07-29T17:15:00.098Z,2.17
2023-07-29T17:20:03.647Z,3.72
2023-07-29T17:25:06.835Z,2.03
2023-07-29T17:30:10.180Z,3.17
2023-07-29T17:35:14.874Z,2.25
2023-07-29T17:40:17.762Z,2.20
2023-07-29T17:45:20.619Z,2.75
2023-07-29T17:50:23.996Z,4.22
2023-07-29T17:55:26.813Z,1.80
2023-07-29T18:00:29.624Z,2.78
2023-07-29T18:05:32.493Z,2.50
2023-07-29T18:10:35.310Z,2.05
2023-07-29T18:15:38.142Z,3.33
2023-07-29T18:20:40.989Z,2.50
2023-07-29T18:25:44.176Z,2.40
2023-07-29T18:30:48.661Z,2.58
2023-07-29T18:35:51.548Z,1.75
2023-07-29T18:40:54.337Z,1.95
2023-07-29T18:45:58.189Z,2.00
2023-07-29T18:51:01.932Z,2.20
2023-07-29T18:56:04.825Z,3.22
2023-07-29T19:01:08.000Z,3.97
2023-07-29T19:06:11.636Z,3.13
2023-07-29T19:11:16.229Z,2.83
2023-07-29T19:16:21.301Z,4.10
2023-07-29T19:21:25.214Z,4.03
2023-07-29T19:26:29.000Z,3.97
2023-07-29T19:31:31.863Z,4.15
2023-07-29T19:36:36.468Z,4.05
2023-07-29T19:41:39.514Z,4.40
2023-07-29T19:46:42.347Z,5.43
2023-07-29T19:51:45.293Z,4.60
2023-07-29T19:56:48.093Z,7.43
2023-07-29T20:01:51.121Z,4.35
2023-07-29T20:06:56.083Z,4.05
2023-07-29T20:11:58.905Z,4.10
2023-07-29T20:17:01.955Z,3.90
2023-07-29T20:22:04.990Z,3.70
2023-07-29T20:27:07.968Z,3.50
2023-07-29T20:32:10.787Z,5.00
2023-07-29T20:37:13.605Z,4.75
2023-07-29T20:42:16.433Z,4.10
2023-07-29T20:47:19.291Z,4.30
2023-07-29T20:52:22.193Z,6.10
2023-07-29T20:57:25.043Z,4.07
2023-07-29T21:02:27.934Z,3.45
2023-07-29T21:07:31.593Z,5.22
2023-07-29T21:12:34.404Z,5.90
2023-07-29T21:17:37.501Z,4.00
2023-07-29T21:22:40.340Z,5.43
2023-07-29T21:27:43.495Z,4.80
2023-07-29T21:32:46.390Z,4.00
2023-07-29T21:37:49.232Z,6.45
2023-07-29T21:42:55.217Z,4.25
2023-07-29T21:47:58.229Z,8.27
2023-07-29T21:53:01.124Z,2.85
2023-07-29T21:58:03.945Z,4.55
2023-07-29T22:03:06.771Z,3.88
2023-07-29T22:08:09.618Z,4.78
2023-07-29T22:13:12.424Z,3.45
2023-07-29T22:18:15.277Z,3.13
2023-07-29T22:23:18.050Z,3.30
2023-07-29T22:28:20.975Z,3.05
2023-07-29T22:33:24.368Z,2.92
2023-07-29T22:38:27.809Z,5.00
2023-07-29T22:43:31.594Z,2.50
2023-07-29T22:48:34.456Z,4.80
2023-07-29T22:53:37.263Z,6.05
2023-07-29T22:58:40.116Z,4.28
2023-07-29T23:03:43.005Z,5.53
2023-07-29T23:08:45.912Z,4.75
2023-07-29T23:13:48.685Z,3.22
2023-07-29T23:18:51.495Z,3.95
2023-07-29T23:23:54.329Z,5.55
2023-07-29T23:28:57.133Z,3.55
2023-07-29T23:34:00.436Z,3.35
2023-07-29T23:39:03.272Z,4.35
2023-07-29T23:44:06.066Z,5.00
2023-07-29T23:49:08.900Z,3.65
2023-07-29T23:54:11.747Z,4.60
2023-07-29T23:59:14.628Z,2.75
